Time;durP1;ratioP1;P1;durP2;ratioP2;P2;SDS_P1;SDS_P2;PMS_P1;PMS_P2;Temp;Humidity;BMP_temperature;BMP_pressure;BME280_temperature;BME280_humidity;BME280_pressure;Samples;Min_cycle;Max_cycle;Signal;HPM_P1;HPM_P2
2021/08/10 00:00:00;;;;;;;3.00;2.15;;;17.20;83.30;;;;;;5051468;28;20096;-76
2021/08/10 00:02:26;;;;;;;3.05;2.30;;;17.20;83.30;;;;;;5051313;28;20108;-77
2021/08/10 00:04:52;;;;;;;2.25;2.00;;;17.20;83.30;;;;;;5052837;28;20166;-77
2021/08/10 00:07:18;;;;;;;4.18;2.00;;;17.20;83.30;;;;;;5051461;28;20033;-77
2021/08/10 00:09:45;;;;;;;3.38;2.22;;;17.20;83.30;;;;;;5051552;28;20488;-77
2021/08/10 00:12:10;;;;;;;2.30;2.00;;;17.10;83.30;;;;;;5052657;28;20033;-76
2021/08/10 00:14:36;;;;;;;2.47;2.15;;;17.10;83.30;;;;;;5051238;28;20128;-76
2021/08/10 00:20:23;;;;;;;2.38;1.80;;;17.10;83.40;;;;;;5030941;28;20117;-78
2021/08/10 00:22:51;;;;;;;2.30;2.10;;;17.10;83.40;;;;;;5030564;28;20113;-78
2021/08/10 00:25:17;;;;;;;3.15;2.30;;;17.10;83.40;;;;;;5013901;28;20492;-77
2021/08/10 00:27:44;;;;;;;2.42;1.90;;;17.00;83.30;;;;;;5030400;28;20049;-76
2021/08/10 00:30:10;;;;;;;2.83;2.10;;;17.00;83.40;;;;;;5014020;28;20370;-77
2021/08/10 00:32:36;;;;;;;3.97;3.03;;;17.00;83.50;;;;;;5030550;28;20058;-77
2021/08/10 00:35:02;;;;;;;2.70;2.42;;;17.00;83.50;;;;;;5014097;28;20098;-77
2021/08/10 00:37:28;;;;;;;3.85;2.20;;;17.00;83.50;;;;;;5030413;28;20096;-78
2021/08/10 00:39:53;;;;;;;2.40;2.20;;;17.00;83.50;;;;;;5030457;28;20436;-76
2021/08/10 00:42:19;;;;;;;2.40;2.20;;;17.00;83.50;;;;;;5013852;28;20141;-77
2021/08/10 00:44:45;;;;;;;2.20;1.85;;;17.00;83.50;;;;;;5030416;28;20030;-77
2021/08/10 00:47:10;;;;;;;3.20;2.05;;;17.00;83.50;;;;;;5013952;28;20037;-77
2021/08/10 00:52:57;;;;;;;2.20;2.00;;;16.90;83.50;;;;;;5030731;28;20075;-77
2021/08/10 00:55:23;;;;;;;3.55;2.33;;;16.90;83.50;;;;;;5049645;28;20485;-77
2021/08/10 00:57:51;;;;;;;4.03;2.35;;;16.90;83.50;;;;;;5052226;28;20029;-77
2021/08/10 01:00:17;;;;;;;2.22;2.00;;;16.90;83.60;;;;;;5051050;28;20427;-77
2021/08/10 01:02:43;;;;;;;2.70;2.15;;;16.90;83.70;;;;;;5052257;28;20025;-77
2021/08/10 01:05:12;;;;;;;3.65;2.05;;;16.90;83.70;;;;;;5050948;28;20058;-77
2021/08/10 01:07:48;;;;;;;2.40;2.20;;;16.90;83.70;;;;;;5052323;28;20511;-78
2021/08/10 01:10:22;;;;;;;3.60;1.98;;;16.90;83.70;;;;;;5050956;28;20041;-77
2021/08/10 01:13:09;;;;;;;3.45;2.50;;;16.80;83.70;;;;;;5051094;28;20087;-78
2021/08/10 01:15:50;;;;;;;2.38;2.10;;;16.80;83.70;;;;;;5071033;28;20017;-77
2021/08/10 01:18:31;;;;;;;2.55;2.10;;;16.80;83.70;;;;;;5054500;28;20108;-77
2021/08/10 01:24:27;;;;;;;2.78;2.00;;;16.80;83.80;;;;;;5056175;28;20024;-77
2021/08/10 01:27:09;;;;;;;2.65;2.10;;;16.80;83.70;;;;;;5061056;28;20048;-77
2021/08/10 01:30:02;;;;;;;3.03;2.20;;;16.80;83.80;;;;;;5075745;28;20052;-77
2021/08/10 01:32:30;;;;;;;3.90;2.25;;;16.80;83.90;;;;;;5040876;28;20203;-77
2021/08/10 01:34:55;;;;;;;2.70;2.15;;;16.80;83.80;;;;;;5074772;28;20025;-78
2021/08/10 01:37:25;;;;;;;3.17;2.00;;;16.80;83.90;;;;;;5057818;28;20033;-77
2021/08/10 01:40:49;;;;;;;3.13;2.25;;;16.80;83.90;;;;;;5057664;28;20032;-77
2021/08/10 01:43:16;;;;;;;1.80;1.70;;;16.80;84.00;;;;;;5075443;28;20024;-78
2021/08/10 01:45:43;;;;;;;3.47;2.17;;;16.80;83.90;;;;;;5074220;28;20137;-78
2021/08/10 01:48:11;;;;;;;3.75;2.38;;;16.70;83.90;;;;;;5075365;28;20388;-78
2021/08/10 01:50:37;;;;;;;3.50;2.10;;;16.70;83.90;;;;;;5057443;28;20020;-78
2021/08/10 01:53:07;;;;;;;3.65;2.40;;;16.70;84.00;;;;;;5057330;28;20135;-78
2021/08/10 01:56:16;;;;;;;2.60;2.05;;;16.70;84.00;;;;;;5075133;28;20024;-78
2021/08/10 01:58:53;;;;;;;3.00;2.30;;;16.70;84.00;;;;;;5075201;28;20016;-78
2021/08/10 02:01:19;;;;;;;2.53;2.00;;;16.70;84.00;;;;;;5057559;28;20109;-77
2021/08/10 02:03:45;;;;;;;3.20;2.40;;;16.80;84.00;;;;;;5073813;28;20123;-77
2021/08/10 02:06:14;;;;;;;2.97;2.13;;;16.80;84.00;;;;;;5057265;28;20020;-77
2021/08/10 02:08:41;;;;;;;2.78;2.38;;;16.80;84.10;;;;;;5075161;28;20036;-77
2021/08/10 02:11:08;;;;;;;6.03;2.42;;;16.70;83.90;;;;;;5073723;28;20143;-77
2021/08/10 02:13:34;;;;;;;4.88;2.45;;;16.80;83.90;;;;;;5056972;28;20031;-77
2021/08/10 02:16:00;;;;;;;2.78;2.10;;;16.80;83.90;;;;;;5074860;28;20036;-77
2021/08/10 02:18:26;;;;;;;3.33;2.10;;;16.80;83.80;;;;;;5056839;28;20024;-77
2021/08/10 02:20:58;;;;;;;2.45;2.20;;;16.80;83.80;;;;;;5056936;28;20460;-77
2021/08/10 02:23:25;;;;;;;3.00;2.15;;;16.80;83.90;;;;;;5073771;28;20046;-77
2021/08/10 02:25:53;;;;;;;3.15;2.50;;;16.80;83.80;;;;;;5056243;28;20028;-77
2021/08/10 02:28:27;;;;;;;2.47;2.17;;;16.80;83.80;;;;;;5074678;28;20049;-77
2021/08/10 02:31:06;;;;;;;4.90;2.45;;;16.70;83.80;;;;;;5056256;28;20442;-77
2021/08/10 02:33:37;;;;;;;4.03;2.08;;;16.70;83.90;;;;;;5056682;28;20373;-77
2021/08/10 02:36:04;;;;;;;3.10;2.30;;;16.80;84.00;;;;;;5015930;28;20132;-77
2021/08/10 02:38:31;;;;;;;4.18;2.35;;;16.70;83.90;;;;;;5015740;28;20491;-77
2021/08/10 02:41:01;;;;;;;3.35;2.45;;;16.70;84.00;;;;;;5032483;28;20041;-77
2021/08/10 02:43:31;;;;;;;3.72;2.40;;;16.70;84.00;;;;;;5032217;28;20025;-77
2021/08/10 02:45:57;;;;;;;2.58;2.10;;;16.70;84.00;;;;;;5015657;28;20033;-77
2021/08/10 02:48:23;;;;;;;2.58;2.03;;;16.70;84.00;;;;;;5015565;28;20482;-77
2021/08/10 02:50:52;;;;;;;3.60;2.08;;;16.70;84.00;;;;;;5015672;28;20036;-77
2021/08/10 02:56:47;;;;;;;3.25;2.30;;;16.60;84.10;;;;;;5032179;28;20044;-78
2021/08/10 02:59:23;;;;;;;3.08;2.22;;;16.60;84.10;;;;;;5032209;28;20045;-77
2021/08/10 03:02:12;;;;;;;4.90;2.10;;;16.60;84.10;;;;;;5032323;28;20044;-77
2021/08/10 03:04:55;;;;;;;2.72;2.10;;;16.60;84.20;;;;;;5015478;28;20064;-77
2021/08/10 03:07:24;;;;;;;2.45;2.05;;;16.60;84.20;;;;;;5041518;28;20124;-78
2021/08/10 03:09:55;;;;;;;2.55;2.10;;;16.60;84.20;;;;;;5055808;28;20056;-78
2021/08/10 03:12:27;;;;;;;4.18;2.38;;;16.60;84.20;;;;;;5071458;28;20071;-78
2021/08/10 03:14:55;;;;;;;3.38;2.08;;;16.50;84.20;;;;;;5055939;28;20059;-78
2021/08/10 03:17:23;;;;;;;3.92;2.40;;;16.50;84.30;;;;;;5074195;28;20472;-78
2021/08/10 03:19:50;;;;;;;2.30;2.10;;;16.50;84.30;;;;;;5072812;28;20013;-77
2021/08/10 03:22:17;;;;;;;4.97;2.50;;;16.50;84.40;;;;;;5073752;28;20052;-78
2021/08/10 03:28:06;;;;;;;2.40;2.10;;;16.50;84.30;;;;;;5073298;28;20056;-77
2021/08/10 03:33:56;;;;;;;2.92;2.10;;;16.50;84.40;;;;;;5073674;28;20138;-78
2021/08/10 03:36:25;;;;;;;2.85;2.13;;;16.50;84.40;;;;;;5055099;28;20032;-78
2021/08/10 03:38:57;;;;;;;4.00;2.40;;;16.40;84.40;;;;;;5055370;28;20017;-78
2021/08/10 03:44:45;;;;;;;3.80;2.35;;;16.40;84.50;;;;;;5073322;28;20403;-77
2021/08/10 03:47:14;;;;;;;4.40;2.30;;;16.40;84.50;;;;;;5055250;28;20476;-77
2021/08/10 03:49:41;;;;;;;2.72;2.30;;;16.30;84.50;;;;;;5055141;28;20112;-77
2021/08/10 03:52:10;;;;;;;3.25;2.42;;;16.30;84.60;;;;;;5071817;28;20035;-77
2021/08/10 03:54:36;;;;;;;6.05;3.35;;;16.30;84.60;;;;;;5073016;28;20028;-76
2021/08/10 03:57:02;;;;;;;3.03;2.05;;;16.30;84.70;;;;;;5055135;28;20129;-77
2021/08/10 03:59:28;;;;;;;3.08;2.30;;;16.30;84.70;;;;;;5069771;28;20042;-77
2021/08/10 04:01:57;;;;;;;4.13;2.25;;;16.30;84.70;;;;;;5073013;28;20025;-77
2021/08/10 04:04:23;;;;;;;4.97;2.90;;;16.20;84.70;;;;;;5054984;28;20225;-77
2021/08/10 04:06:49;;;;;;;4.30;2.20;;;16.20;84.80;;;;;;5055043;28;20020;-77
2021/08/10 04:09:16;;;;;;;2.50;2.30;;;16.20;84.90;;;;;;5071567;28;20518;-77
2021/08/10 04:11:42;;;;;;;2.50;1.83;;;16.20;85.60;;;;;;5055020;28;20025;-77
2021/08/10 04:14:08;;;;;;;4.30;2.30;;;16.20;85.00;;;;;;5054909;28;20464;-77
2021/08/10 04:16:58;;;;;;;3.05;2.22;;;16.20;85.10;;;;;;5072653;28;20028;-76
2021/08/10 04:19:32;;;;;;;3.75;2.50;;;16.10;85.10;;;;;;5054690;28;20031;-76
2021/08/10 04:21:58;;;;;;;2.85;2.20;;;16.10;85.10;;;;;;5054772;28;20009;-77
2021/08/10 04:24:24;;;;;;;2.53;2.20;;;16.10;85.10;;;;;;5072636;28;20028;-77
2021/08/10 04:26:49;;;;;;;2.95;2.10;;;16.10;85.10;;;;;;5069483;28;20053;-76
2021/08/10 04:32:37;;;;;;;2.38;2.05;;;16.10;85.30;;;;;;5072631;28;20523;-77
2021/08/10 04:35:04;;;;;;;3.15;2.15;;;16.10;85.20;;;;;;5054715;28;20021;-77
2021/08/10 04:37:30;;;;;;;3.22;2.30;;;16.10;85.20;;;;;;5071310;28;20033;-77
2021/08/10 04:39:56;;;;;;;3.95;2.17;;;16.00;85.20;;;;;;5072521;28;20044;-77
2021/08/10 04:42:27;;;;;;;3.33;2.20;;;16.10;85.30;;;;;;5072502;28;20024;-77
2021/08/10 04:44:52;;;;;;;4.10;2.08;;;16.00;85.30;;;;;;5072327;28;20028;-77
2021/08/10 04:47:18;;;;;;;3.08;1.90;;;16.00;85.30;;;;;;5072490;28;20524;-77
2021/08/10 04:49:43;;;;;;;2.95;2.05;;;16.00;85.30;;;;;;5058308;28;20040;-77
2021/08/10 04:52:09;;;;;;;4.82;2.28;;;16.10;85.30;;;;;;5076412;28;20383;-77
2021/08/10 04:54:35;;;;;;;3.10;2.10;;;16.10;85.30;;;;;;5058574;28;20484;-77
2021/08/10 04:57:01;;;;;;;2.78;2.15;;;16.10;85.30;;;;;;5058705;28;20016;-77
2021/08/10 04:59:38;;;;;;;1.80;1.63;;;16.10;85.30;;;;;;5058515;28;20024;-77
2021/08/10 05:02:05;;;;;;;2.50;2.22;;;16.10;85.40;;;;;;5056305;28;20029;-77
2021/08/10 05:04:31;;;;;;;2.97;1.80;;;16.10;85.30;;;;;;5058880;28;20361;-77
2021/08/10 05:06:57;;;;;;;3.45;2.25;;;16.10;85.30;;;;;;5058132;28;20062;-77
2021/08/10 05:09:23;;;;;;;2.38;1.88;;;16.20;85.30;;;;;;5033838;28;20085;-77
2021/08/10 05:11:49;;;;;;;3.53;1.95;;;16.20;85.20;;;;;;5033819;28;20030;-77
2021/08/10 05:14:14;;;;;;;4.05;2.13;;;16.20;85.20;;;;;;5033730;28;20049;-77
2021/08/10 05:16:40;;;;;;;3.88;1.98;;;16.20;85.10;;;;;;5033543;28;20412;-77
2021/08/10 05:19:06;;;;;;;3.75;2.22;;;16.20;85.10;;;;;;5033613;28;20430;-77
2021/08/10 05:21:31;;;;;;;2.45;1.80;;;16.20;85.10;;;;;;5033805;28;20037;-77
2021/08/10 05:23:57;;;;;;;5.43;1.95;;;16.20;85.00;;;;;;5017263;28;20132;-77
2021/08/10 05:26:24;;;;;;;3.00;2.20;;;16.20;85.00;;;;;;5033485;28;20025;-76
2021/08/10 05:28:50;;;;;;;3.83;2.20;;;16.20;85.10;;;;;;5033273;28;20053;-77
2021/08/10 05:31:15;;;;;;;2.22;2.00;;;16.20;85.10;;;;;;5033345;28;20033;-77
2021/08/10 05:33:41;;;;;;;5.25;2.90;;;16.20;85.10;;;;;;5033321;28;20055;-77
2021/08/10 05:36:07;;;;;;;3.67;2.10;;;16.20;85.20;;;;;;5033161;28;20063;-77
2021/08/10 05:38:33;;;;;;;2.13;1.83;;;16.20;85.10;;;;;;5033265;28;20095;-77
2021/08/10 05:40:58;;;;;;;2.67;1.80;;;16.20;85.10;;;;;;5033227;28;20033;-78
2021/08/10 05:43:24;;;;;;;3.10;1.85;;;16.20;85.10;;;;;;5033341;28;20468;-78
2021/08/10 05:45:50;;;;;;;3.42;2.05;;;16.20;85.10;;;;;;5035191;28;20025;-78
2021/08/10 05:52:08;;;;;;;2.83;2.28;;;16.30;85.20;;;;;;5055536;28;20023;-78
2021/08/10 05:54:36;;;;;;;3.22;2.13;;;16.30;85.60;;;;;;5054115;28;20025;-78
2021/08/10 05:57:02;;;;;;;2.22;2.00;;;16.30;85.00;;;;;;5055035;28;20020;-77
2021/08/10 05:59:31;;;;;;;3.15;2.15;;;16.30;85.00;;;;;;5053184;28;20025;-77
2021/08/10 06:02:00;;;;;;;2.85;2.03;;;16.40;85.10;;;;;;5053628;28;20472;-77
2021/08/10 06:04:26;;;;;;;3.70;2.10;;;16.40;85.00;;;;;;5053717;28;20042;-77
2021/08/10 06:10:14;;;;;;;3.40;1.92;;;16.50;84.80;;;;;;5055233;28;20150;-77
2021/08/10 06:12:39;;;;;;;3.55;2.10;;;16.50;84.60;;;;;;5054767;28;20125;-78
2021/08/10 06:15:06;;;;;;;5.10;2.40;;;16.50;84.60;;;;;;5054622;28;20134;-77
2021/08/10 06:17:31;;;;;;;2.60;2.10;;;16.50;84.60;;;;;;5053438;28;20404;-78
2021/08/10 06:19:58;;;;;;;4.45;2.20;;;16.50;84.60;;;;;;5054688;28;20029;-77
2021/08/10 06:22:23;;;;;;;2.50;2.20;;;16.60;84.60;;;;;;5053533;28;20032;-77
2021/08/10 06:24:49;;;;;;;3.22;2.08;;;16.60;84.50;;;;;;5054659;28;20025;-77
2021/08/10 06:27:15;;;;;;;3.17;1.92;;;16.70;84.50;;;;;;5061267;28;20052;-77
2021/08/10 06:30:36;;;;;;;7.10;2.30;;;16.70;84.30;;;;;;5074974;28;20134;-77
2021/08/10 06:33:02;;;;;;;3.88;2.50;;;16.80;84.20;;;;;;5056253;28;20193;-77
2021/08/10 06:35:29;;;;;;;3.63;2.53;;;16.90;84.10;;;;;;5056492;28;20056;-77
2021/08/10 06:37:55;;;;;;;4.07;2.38;;;17.10;84.20;;;;;;5074471;28;20033;-78
2021/08/10 06:40:22;;;;;;;3.65;2.25;;;17.20;83.70;;;;;;5056181;28;20013;-77
2021/08/10 06:42:47;;;;;;;4.60;2.47;;;17.30;83.30;;;;;;5074403;28;20016;-77
2021/08/10 06:45:13;;;;;;;2.85;2.15;;;17.30;83.20;;;;;;5056561;28;20031;-77
2021/08/10 06:47:40;;;;;;;2.55;2.30;;;17.40;83.20;;;;;;5056403;28;20066;-77
2021/08/10 06:50:10;;;;;;;3.75;2.30;;;17.40;83.10;;;;;;5074315;28;20027;-76
2021/08/10 06:53:07;;;;;;;3.55;2.17;;;17.50;83.10;;;;;;5056451;28;20059;-77
2021/08/10 06:55:36;;;;;;;2.67;2.40;;;17.50;82.90;;;;;;5056057;28;20028;-76
2021/08/10 06:58:02;;;;;;;3.60;2.60;;;17.60;82.90;;;;;;5055930;28;20032;-77
2021/08/10 07:00:28;;;;;;;3.28;2.45;;;17.60;82.80;;;;;;5055789;28;20016;-78
2021/08/10 07:02:53;;;;;;;3.33;2.55;;;17.70;82.70;;;;;;5073925;28;20027;-77
2021/08/10 07:08:41;;;;;;;3.13;2.42;;;17.70;82.40;;;;;;5074092;28;20403;-78
2021/08/10 07:11:06;;;;;;;5.75;3.25;;;17.80;82.40;;;;;;5073977;28;20013;-76
2021/08/10 07:13:32;;;;;;;4.45;2.97;;;17.80;82.50;;;;;;5055645;28;20028;-77
2021/08/10 07:15:58;;;;;;;3.95;3.00;;;17.80;82.50;;;;;;5073363;28;20020;-76
2021/08/10 07:18:24;;;;;;;3.33;2.80;;;17.80;82.30;;;;;;5055484;28;20031;-76
2021/08/10 07:20:49;;;;;;;2.78;2.55;;;17.90;82.30;;;;;;5073785;28;20023;-77
2021/08/10 07:23:15;;;;;;;4.40;2.80;;;18.00;82.20;;;;;;5055401;28;20024;-78
2021/08/10 07:25:40;;;;;;;3.00;2.70;;;18.00;82.00;;;;;;5073374;28;20064;-77
2021/08/10 07:28:06;;;;;;;3.60;2.60;;;18.20;81.80;;;;;;5051799;28;20404;-77
2021/08/10 07:30:32;;;;;;;3.63;2.80;;;18.30;81.60;;;;;;5052136;28;20024;-77
2021/08/10 07:32:57;;;;;;;3.92;2.70;;;18.40;81.40;;;;;;5052211;28;20052;-78
2021/08/10 07:35:23;;;;;;;5.43;3.00;;;18.50;81.20;;;;;;5031255;28;20038;-78
2021/08/10 07:37:49;;;;;;;5.10;3.10;;;18.50;81.00;;;;;;5014727;28;20493;-77
2021/08/10 07:40:18;;;;;;;2.97;2.60;;;18.40;80.80;;;;;;5031164;28;20041;-78
2021/08/10 07:42:44;;;;;;;3.80;2.70;;;18.40;80.90;;;;;;5014498;28;20022;-78
2021/08/10 07:45:10;;;;;;;3.58;2.45;;;18.40;81.10;;;;;;5014497;28;20033;-77
2021/08/10 07:48:06;;;;;;;3.42;2.80;;;18.40;81.10;;;;;;5014638;28;20145;-78
2021/08/10 07:53:53;;;;;;;3.90;2.65;;;18.50;80.60;;;;;;5031183;28;20036;-78
2021/08/10 07:56:19;;;;;;;3.28;2.45;;;18.60;80.60;;;;;;5014284;28;20057;-78
2021/08/10 07:58:45;;;;;;;5.20;3.15;;;18.60;80.50;;;;;;5014356;28;20025;-77
2021/08/10 08:01:11;;;;;;;5.57;3.00;;;18.70;80.20;;;;;;5014288;28;20025;-77
2021/08/10 08:03:37;;;;;;;5.35;2.80;;;18.60;80.00;;;;;;5030859;28;20018;-77
2021/08/10 08:06:03;;;;;;;6.43;3.20;;;18.60;80.10;;;;;;5026020;28;20067;-77
2021/08/10 08:08:30;;;;;;;3.20;2.35;;;18.60;80.20;;;;;;5051430;28;20510;-77
2021/08/10 08:10:57;;;;;;;3.70;2.72;;;18.50;80.20;;;;;;5051371;28;20033;-77
2021/08/10 08:16:45;;;;;;;6.22;2.78;;;18.70;80.20;;;;;;5052758;28;20040;-77
2021/08/10 08:19:10;;;;;;;3.25;2.63;;;18.80;80.00;;;;;;5051398;28;20025;-77
2021/08/10 08:21:36;;;;;;;4.80;2.72;;;18.80;79.80;;;;;;5052434;28;20028;-77
2021/08/10 08:24:02;;;;;;;4.07;2.60;;;18.80;79.70;;;;;;5056919;28;20027;-77
2021/08/10 08:26:27;;;;;;;4.13;2.88;;;18.90;79.60;;;;;;5057961;28;20028;-77
2021/08/10 08:28:53;;;;;;;4.40;2.72;;;19.00;79.50;;;;;;5061102;28;20480;-78
2021/08/10 08:34:41;;;;;;;4.25;2.55;;;19.00;79.30;;;;;;5079472;28;20499;-77
2021/08/10 08:37:07;;;;;;;4.93;2.22;;;19.10;79.00;;;;;;5061028;28;20032;-77
2021/08/10 08:39:44;;;;;;;4.07;2.80;;;19.10;78.80;;;;;;5061985;28;20020;-77
2021/08/10 08:42:14;;;;;;;5.10;2.90;;;19.20;78.50;;;;;;5061561;28;20024;-77
2021/08/10 08:44:39;;;;;;;3.67;2.40;;;19.20;78.50;;;;;;5044131;28;20412;-78
2021/08/10 08:47:07;;;;;;;5.95;2.50;;;19.30;79.10;;;;;;5061302;28;20021;-78
2021/08/10 08:52:57;;;;;;;4.53;2.15;;;19.40;78.10;;;;;;5079187;28;20545;-77
2021/08/10 08:55:23;;;;;;;3.63;1.90;;;19.60;77.90;;;;;;5078862;28;20016;-78
2021/08/10 08:57:49;;;;;;;3.92;2.10;;;19.70;77.60;;;;;;5075497;28;20052;-77
2021/08/10 09:00:16;;;;;;;2.72;2.00;;;19.80;77.30;;;;;;5060777;28;20047;-78
2021/08/10 09:02:44;;;;;;;2.92;2.00;;;19.90;76.90;;;;;;5061056;28;20013;-78
2021/08/10 09:05:13;;;;;;;3.20;2.13;;;20.00;76.50;;;;;;5078727;28;20045;-78
2021/08/10 09:07:44;;;;;;;2.53;1.77;;;20.10;76.40;;;;;;5060720;28;20067;-78
2021/08/10 09:13:32;;;;;;;2.40;2.00;;;20.10;75.40;;;;;;5078979;28;20364;-78
2021/08/10 09:16:20;;;;;;;2.95;1.92;;;20.10;75.40;;;;;;5193587;27;20438;-78
2021/08/10 09:18:45;;;;;;;3.10;1.45;;;20.00;75.40;;;;;;5153929;27;20029;-76
2021/08/10 09:21:13;;;;;;;1.80;1.58;;;19.90;75.30;;;;;;5172508;27;20387;-77
2021/08/10 09:23:45;;;;;;;3.20;1.73;;;19.90;75.40;;;;;;5172228;27;20037;-76
2021/08/10 09:26:17;;;;;;;1.98;1.55;;;19.90;75.20;;;;;;5153524;27;20458;-76
2021/08/10 09:28:44;;;;;;;3.97;1.85;;;20.00;75.20;;;;;;5153830;27;20046;-77
2021/08/10 09:34:33;;;;;;;1.95;1.58;;;20.10;74.80;;;;;;5172709;27;20150;-76
2021/08/10 09:36:59;;;;;;;4.88;2.08;;;20.00;74.90;;;;;;5172648;27;20493;-76
2021/08/10 09:39:43;;;;;;;5.43;1.92;;;20.00;74.90;;;;;;5153640;27;20033;-77
2021/08/10 09:42:13;;;;;;;4.15;2.00;;;20.10;74.80;;;;;;5153298;27;20023;-77
2021/08/10 09:45:04;;;;;;;4.50;2.05;;;20.00;74.70;;;;;;5159409;27;20027;-77
2021/08/10 09:47:39;;;;;;;3.63;1.90;;;20.00;74.70;;;;;;5132492;27;20086;-77
2021/08/10 09:50:26;;;;;;;2.85;2.10;;;20.00;74.90;;;;;;5132563;27;20031;-77
2021/08/10 09:52:52;;;;;;;3.97;2.55;;;20.00;74.70;;;;;;5132731;27;20023;-77
2021/08/10 09:55:19;;;;;;;2.67;1.95;;;20.00;74.70;;;;;;5151017;27;20038;-77
2021/08/10 09:58:04;;;;;;;3.22;2.22;;;20.00;74.70;;;;;;5129290;27;20039;-77
2021/08/10 10:00:41;;;;;;;2.53;2.03;;;19.90;74.70;;;;;;5150752;27;20502;-77
2021/08/10 10:03:20;;;;;;;3.15;2.10;;;19.90;75.20;;;;;;5132274;27;20474;-77
2021/08/10 10:05:47;;;;;;;3.42;2.00;;;19.80;75.60;;;;;;5131975;27;20038;-77
2021/08/10 10:08:24;;;;;;;3.20;2.42;;;19.80;75.80;;;;;;5147525;27;20031;-76
2021/08/10 10:10:53;;;;;;;3.50;1.98;;;19.90;76.00;;;;;;5132129;27;20034;-77
2021/08/10 10:13:21;;;;;;;3.13;2.00;;;19.80;76.10;;;;;;5132283;27;20096;-77
2021/08/10 10:15:47;;;;;;;2.28;1.90;;;19.90;76.20;;;;;;5131760;27;20045;-77
2021/08/10 10:18:13;;;;;;;3.22;2.40;;;20.00;76.20;;;;;;5132178;27;20027;-77
2021/08/10 10:20:47;;;;;;;1.98;1.85;;;20.10;76.10;;;;;;5150411;27;20023;-77
2021/08/10 10:23:22;;;;;;;4.22;1.70;;;20.10;75.80;;;;;;5150330;27;20106;-77
2021/08/10 10:25:52;;;;;;;2.55;1.65;;;20.20;75.80;;;;;;5128452;27;20035;-77
2021/08/10 10:31:40;;;;;;;2.65;1.70;;;20.10;75.60;;;;;;5136618;27;20030;-77
2021/08/10 10:34:06;;;;;;;1.70;1.35;;;20.00;75.60;;;;;;5114628;27;20038;-76
2021/08/10 10:36:34;;;;;;;3.08;1.70;;;20.00;75.80;;;;;;5117911;27;20020;-77
2021/08/10 10:39:00;;;;;;;2.50;1.60;;;19.90;75.70;;;;;;5117869;27;20023;-77
2021/08/10 10:41:31;;;;;;;2.15;1.90;;;19.90;75.60;;;;;;5136196;27;20019;-77
2021/08/10 10:43:57;;;;;;;2.35;1.90;;;20.00;75.60;;;;;;5117651;27;20125;-77
2021/08/10 10:46:30;;;;;;;3.95;1.90;;;20.20;75.30;;;;;;5117641;27;20064;-77
2021/08/10 10:48:56;;;;;;;4.18;1.65;;;20.40;74.80;;;;;;5136131;27;20038;-77
2021/08/10 10:51:25;;;;;;;3.35;2.10;;;20.50;74.30;;;;;;5117580;27;20390;-77
2021/08/10 10:53:50;;;;;;;3.22;2.10;;;20.70;73.80;;;;;;5114537;27;20027;-77
2021/08/10 10:56:25;;;;;;;2.47;2.05;;;20.80;73.40;;;;;;5135816;27;20072;-77
2021/08/10 10:59:16;;;;;;;5.22;2.55;;;20.90;72.20;;;;;;5135816;27;20367;-78
2021/08/10 11:01:42;;;;;;;2.53;1.85;;;21.00;71.40;;;;;;5135663;27;20031;-78
2021/08/10 11:04:09;;;;;;;3.38;2.20;;;21.10;71.70;;;;;;5117570;27;20115;-78
2021/08/10 11:06:55;;;;;;;2.42;1.88;;;21.20;71.80;;;;;;5135826;27;20062;-78
2021/08/10 11:09:36;;;;;;;4.95;2.28;;;21.20;70.70;;;;;;5135473;27;20092;-78
2021/08/10 11:12:02;;;;;;;2.28;1.90;;;21.40;70.10;;;;;;5135810;27;20144;-78
2021/08/10 11:18:08;;;;;;;3.05;1.90;;;21.70;69.20;;;;;;5118831;27;20493;-77
2021/08/10 11:20:44;;;;;;;4.60;2.85;;;21.70;68.60;;;;;;5135729;27;20027;-78
2021/08/10 11:25:48;;;;;;;2.65;1.90;;;21.90;67.50;;;;;;5135785;27;20079;-77
2021/08/10 11:28:52;;;;;;;2.08;1.80;;;21.90;67.50;;;;;;5135423;27;20019;-78
2021/08/10 11:31:31;;;;;;;;;;;22.10;67.40;;;;;;5135715;27;20019;-77
2021/08/10 11:33:57;;;;;;;3.25;2.10;;;22.20;66.90;;;;;;5135579;27;19907;-78
2021/08/10 11:40:03;;;;;;;3.92;2.25;;;22.10;66.30;;;;;;5134893;27;20099;-78
2021/08/10 11:42:29;;;;;;;3.30;2.10;;;22.00;66.20;;;;;;5135251;27;20038;-77
2021/08/10 11:44:56;;;;;;;2.95;2.10;;;22.00;66.30;;;;;;5135224;27;20027;-78
2021/08/10 11:47:22;;;;;;;4.13;2.40;;;21.90;65.50;;;;;;5135203;27;20115;-78
2021/08/10 11:49:56;;;;;;;4.15;2.20;;;22.00;65.60;;;;;;5135063;27;20027;-78
2021/08/10 11:52:22;;;;;;;3.33;2.20;;;22.00;65.50;;;;;;5116472;27;20367;-78
2021/08/10 11:54:58;;;;;;;2.95;2.17;;;21.90;65.60;;;;;;5134647;27;20490;-78
2021/08/10 11:57:24;;;;;;;5.10;2.33;;;21.90;65.60;;;;;;5134639;27;20055;-78
2021/08/10 11:59:51;;;;;;;4.20;2.30;;;22.00;65.40;;;;;;5116201;27;20032;-78
2021/08/10 12:05:44;;;;;;;3.92;2.00;;;21.90;65.10;;;;;;5134808;27;20038;-78
2021/08/10 12:08:09;;;;;;;3.30;1.90;;;22.00;65.60;;;;;;5114096;28;20030;-78
2021/08/10 12:10:36;;;;;;;3.78;2.08;;;22.20;65.70;;;;;;5112689;28;20028;-78
2021/08/10 12:13:22;;;;;;;3.83;2.13;;;22.40;65.30;;;;;;5116118;27;20027;-77
2021/08/10 12:15:49;;;;;;;3.83;2.30;;;22.50;64.80;;;;;;5134381;27;20106;-77
2021/08/10 12:18:32;;;;;;;4.55;2.20;;;22.40;64.50;;;;;;5134236;27;20525;-77
2021/08/10 12:21:05;;;;;;;5.15;2.53;;;22.50;64.50;;;;;;5134403;27;20019;-77
2021/08/10 12:24:00;;;;;;;2.70;1.80;;;22.50;64.10;;;;;;5115966;27;20165;-77
2021/08/10 12:26:29;;;;;;;3.00;2.08;;;22.50;64.20;;;;;;5112762;27;20047;-77
2021/08/10 12:29:04;;;;;;;4.00;2.15;;;22.40;64.00;;;;;;5134177;27;20069;-77
2021/08/10 12:31:34;;;;;;;3.15;2.20;;;22.40;64.00;;;;;;5115813;27;20024;-77
2021/08/10 12:34:00;;;;;;;4.25;2.35;;;22.40;63.80;;;;;;5115878;27;20076;-77
2021/08/10 12:36:27;;;;;;;4.95;2.22;;;22.50;63.20;;;;;;5115631;27;20062;-77
2021/08/10 12:38:54;;;;;;;3.75;2.53;;;22.60;63.20;;;;;;5134123;27;20030;-77
2021/08/10 12:41:24;;;;;;;3.28;2.38;;;22.70;62.70;;;;;;5134116;27;20054;-77
2021/08/10 12:43:51;;;;;;;5.07;2.20;;;22.80;62.50;;;;;;5133987;27;20351;-77
2021/08/10 12:46:27;;;;;;;4.38;2.40;;;22.90;62.80;;;;;;5115675;27;20056;-77
2021/08/10 12:49:10;;;;;;;3.97;2.38;;;23.00;61.80;;;;;;5115101;27;20439;-77
2021/08/10 12:52:00;;;;;;;4.07;2.25;;;23.00;61.50;;;;;;5115455;27;20435;-77
2021/08/10 12:54:32;;;;;;;3.70;2.13;;;23.00;61.60;;;;;;5133804;27;20031;-77
2021/08/10 12:57:00;;;;;;;5.07;2.30;;;23.10;62.00;;;;;;5115352;27;20023;-77
2021/08/10 13:00:06;;;;;;;4.85;3.03;;;23.20;61.50;;;;;;5133789;27;20494;-77
2021/08/10 13:02:34;;;;;;;5.07;2.53;;;23.20;60.80;;;;;;5115774;27;20486;-77
2021/08/10 13:05:00;;;;;;;4.63;2.58;;;23.20;60.90;;;;;;5115369;27;20027;-77
2021/08/10 13:07:26;;;;;;;3.85;2.60;;;23.20;61.00;;;;;;5133682;27;20119;-77
2021/08/10 13:09:54;;;;;;;5.22;2.60;;;23.10;61.40;;;;;;5133981;27;20027;-77
2021/08/10 13:12:20;;;;;;;3.33;2.40;;;23.00;61.60;;;;;;5115144;28;20027;-77
2021/08/10 13:15:09;;;;;;;3.28;2.28;;;23.10;61.90;;;;;;5133660;28;20114;-77
2021/08/10 13:17:44;;;;;;;4.88;2.65;;;23.20;61.20;;;;;;5114993;28;20027;-77
2021/08/10 13:23:39;;;;;;;3.92;2.13;;;23.40;61.10;;;;;;5134001;28;20038;-77
2021/08/10 13:26:06;;;;;;;;;;;23.50;61.00;;;;;;5115569;28;20367;-77
2021/08/10 13:28:34;;;;;;;3.70;2.30;;;23.60;61.10;;;;;;5114903;28;19994;-77
2021/08/10 13:31:18;;;;;;;3.63;2.40;;;23.70;60.90;;;;;;5133585;28;20108;-77
2021/08/10 13:34:09;;;;;;;;;;;23.70;60.50;;;;;;5115300;28;20027;-77
2021/08/10 13:36:35;;;;;;;3.95;2.20;;;23.60;60.20;;;;;;5110333;28;19919;-77
2021/08/10 13:39:03;;;;;;;4.50;2.50;;;23.60;60.50;;;;;;5114782;28;20027;-77
2021/08/10 13:41:31;;;;;;;3.50;2.65;;;23.50;60.10;;;;;;5114543;28;20034;-76
2021/08/10 13:43:58;;;;;;;3.50;1.98;;;23.40;60.10;;;;;;5114567;28;20032;-76
2021/08/10 13:46:30;;;;;;;3.38;2.30;;;23.30;60.40;;;;;;5114639;28;20490;-77
2021/08/10 13:48:57;;;;;;;2.70;2.38;;;23.30;60.40;;;;;;5114560;28;20394;-77
2021/08/10 13:51:23;;;;;;;3.72;2.47;;;23.30;60.50;;;;;;5111900;28;20486;-77
2021/08/10 13:53:49;;;;;;;4.10;2.67;;;23.30;60.20;;;;;;5114101;28;20118;-77
2021/08/10 13:56:15;;;;;;;3.33;2.25;;;23.20;60.30;;;;;;5114487;28;20117;-77
2021/08/10 13:58:40;;;;;;;3.85;2.60;;;23.30;60.50;;;;;;5114580;28;20057;-77
2021/08/10 14:01:13;;;;;;;4.22;2.28;;;23.20;60.50;;;;;;5115159;27;20079;-77
2021/08/10 14:03:39;;;;;;;2.78;1.98;;;23.30;60.70;;;;;;5118403;27;20019;-77
2021/08/10 14:06:06;;;;;;;3.83;2.75;;;23.20;60.80;;;;;;5118350;27;20024;-77
2021/08/10 14:08:34;;;;;;;5.15;2.40;;;23.20;60.90;;;;;;5118402;27;20084;-77
2021/08/10 14:10:59;;;;;;;5.10;2.55;;;23.00;60.90;;;;;;5136893;27;20027;-77
2021/08/10 14:13:25;;;;;;;3.78;2.53;;;23.00;60.80;;;;;;5136901;27;20023;-77
2021/08/10 14:15:51;;;;;;;2.55;2.30;;;23.00;60.90;;;;;;5117973;27;20049;-78
2021/08/10 14:18:16;;;;;;;5.47;2.65;;;23.10;60.90;;;;;;5118092;27;20047;-77